sensor_id;sensor_type;location;lat;lon;timestamp;P1;durP1;ratioP1;P2;durP2;ratioP2
58982;SDS011;44771;49.982;8.560;2024-03-23T00:53:23;26.35;;;24.70;;
58982;SDS011;44771;49.982;8.560;2024-03-23T00:58:23;26.42;;;24.37;;
58982;SDS011;44771;49.982;8.560;2024-03-23T01:03:26;26.00;;;24.00;;
58982;SDS011;44771;49.982;8.560;2024-03-23T01:08:27;24.80;;;23.10;;
58982;SDS011;44771;49.982;8.560;2024-03-23T01:13:28;25.35;;;23.85;;
58982;SDS011;44771;49.982;8.560;2024-03-23T01:18:30;25.75;;;24.08;;
58982;SDS011;44771;49.982;8.560;2024-03-23T01:23:31;23.00;;;21.55;;
58982;SDS011;44771;49.982;8.560;2024-03-23T01:28:32;22.98;;;21.67;;
58982;SDS011;44771;49.982;8.560;2024-03-23T01:33:34;22.35;;;20.83;;
58982;SDS011;44771;49.982;8.560;2024-03-23T01:38:35;23.80;;;22.45;;
58982;SDS011;44771;49.982;8.560;2024-03-23T01:43:35;22.00;;;20.62;;
58982;SDS011;44771;49.982;8.560;2024-03-23T01:48:38;23.85;;;22.42;;
58982;SDS011;44771;49.982;8.560;2024-03-23T01:53:39;25.25;;;23.52;;
58982;SDS011;44771;49.982;8.560;2024-03-23T01:58:39;23.70;;;22.10;;
58982;SDS011;44771;49.982;8.560;2024-03-23T02:03:42;25.58;;;23.98;;
58982;SDS011;44771;49.982;8.560;2024-03-23T02:08:43;26.67;;;24.45;;
58982;SDS011;44771;49.982;8.560;2024-03-23T02:13:44;28.25;;;25.33;;
58982;SDS011;44771;49.982;8.560;2024-03-23T02:18:47;24.05;;;22.55;;
58982;SDS011;44771;49.982;8.560;2024-03-23T02:23:49;24.77;;;23.10;;
58982;SDS011;44771;49.982;8.560;2024-03-23T02:28:50;26.05;;;24.30;;
58982;SDS011;44771;49.982;8.560;2024-03-23T02:33:50;23.73;;;22.10;;
58982;SDS011;44771;49.982;8.560;2024-03-23T02:38:53;23.45;;;22.05;;
58982;SDS011;44771;49.982;8.560;2024-03-23T02:43:54;26.23;;;23.85;;
58982;SDS011;44771;49.982;8.560;2024-03-23T02:48:55;24.00;;;22.15;;
58982;SDS011;44771;49.982;8.560;2024-03-23T02:53:57;25.85;;;23.87;;
58982;SDS011;44771;49.982;8.560;2024-03-23T02:58:58;26.37;;;24.12;;
58982;SDS011;44771;49.982;8.560;2024-03-23T03:04:00;24.80;;;22.92;;
58982;SDS011;44771;49.982;8.560;2024-03-23T03:09:02;25.85;;;23.87;;
58982;SDS011;44771;49.982;8.560;2024-03-23T03:14:03;24.05;;;21.98;;
58982;SDS011;44771;49.982;8.560;2024-03-23T03:19:04;26.40;;;24.55;;
58982;SDS011;44771;49.982;8.560;2024-03-23T03:24:06;25.58;;;23.10;;
58982;SDS011;44771;49.982;8.560;2024-03-23T03:29:07;26.30;;;24.40;;
58982;SDS011;44771;49.982;8.560;2024-03-23T03:34:08;26.27;;;24.10;;
58982;SDS011;44771;49.982;8.560;2024-03-23T03:39:10;25.23;;;23.00;;
58982;SDS011;44771;49.982;8.560;2024-03-23T03:44:11;26.00;;;23.70;;
58982;SDS011;44771;49.982;8.560;2024-03-23T03:49:12;25.60;;;23.50;;
58982;SDS011;44771;49.982;8.560;2024-03-23T03:54:15;27.52;;;24.83;;
58982;SDS011;44771;49.982;8.560;2024-03-23T03:59:15;27.48;;;25.45;;
58982;SDS011;44771;49.982;8.560;2024-03-23T04:04:17;25.37;;;23.25;;
58982;SDS011;44771;49.982;8.560;2024-03-23T04:09:19;26.55;;;24.50;;
58982;SDS011;44771;49.982;8.560;2024-03-23T04:14:20;24.65;;;22.80;;
58982;SDS011;44771;49.982;8.560;2024-03-23T04:19:21;26.20;;;23.98;;
58982;SDS011;44771;49.982;8.560;2024-03-23T04:24:23;26.25;;;24.25;;
58982;SDS011;44771;49.982;8.560;2024-03-23T04:29:24;23.55;;;21.12;;
58982;SDS011;44771;49.982;8.560;2024-03-23T04:34:25;21.20;;;20.00;;
58982;SDS011;44771;49.982;8.560;2024-03-23T04:39:29;20.05;;;19.05;;
58982;SDS011;44771;49.982;8.560;2024-03-23T04:44:30;20.23;;;19.12;;
58982;SDS011;44771;49.982;8.560;2024-03-23T04:49:31;20.45;;;19.23;;
58982;SDS011;44771;49.982;8.560;2024-03-23T04:54:34;21.08;;;19.98;;
58982;SDS011;44771;49.982;8.560;2024-03-23T04:59:34;20.05;;;19.02;;
58982;SDS011;44771;49.982;8.560;2024-03-23T05:04:35;20.23;;;19.23;;
58982;SDS011;44771;49.982;8.560;2024-03-23T05:09:38;20.60;;;19.37;;
58982;SDS011;44771;49.982;8.560;2024-03-23T05:14:38;22.87;;;21.62;;
58982;SDS011;44771;49.982;8.560;2024-03-23T05:19:39;22.20;;;21.12;;
58982;SDS011;44771;49.982;8.560;2024-03-23T05:24:41;20.12;;;19.15;;
58982;SDS011;44771;49.982;8.560;2024-03-23T05:29:42;22.50;;;21.30;;
58982;SDS011;44771;49.982;8.560;2024-03-23T05:34:43;22.42;;;21.23;;
58982;SDS011;44771;49.982;8.560;2024-03-23T05:45:13;21.42;;;20.42;;
58982;SDS011;44771;49.982;8.560;2024-03-23T05:50:14;20.12;;;19.12;;
58982;SDS011;44771;49.982;8.560;2024-03-23T05:55:16;21.98;;;20.77;;
58982;SDS011;44771;49.982;8.560;2024-03-23T06:00:17;22.52;;;21.42;;
58982;SDS011;44771;49.982;8.560;2024-03-23T06:16:27;19.83;;;18.90;;
58982;SDS011;44771;49.982;8.560;2024-03-23T06:21:28;22.85;;;21.65;;
58982;SDS011;44771;49.982;8.560;2024-03-23T06:26:29;21.77;;;20.70;;
58982;SDS011;44771;49.982;8.560;2024-03-23T06:31:31;22.90;;;21.70;;
58982;SDS011;44771;49.982;8.560;2024-03-23T06:36:35;20.70;;;19.70;;
58982;SDS011;44771;49.982;8.560;2024-03-23T06:41:36;21.00;;;20.00;;
58982;SDS011;44771;49.982;8.560;2024-03-23T06:46:38;21.20;;;20.20;;
58982;SDS011;44771;49.982;8.560;2024-03-23T06:51:39;21.50;;;20.40;;
58982;SDS011;44771;49.982;8.560;2024-03-23T06:57:27;22.58;;;21.48;;
58982;SDS011;44771;49.982;8.560;2024-03-23T07:08:06;22.60;;;21.40;;
58982;SDS011;44771;49.982;8.560;2024-03-23T07:18:40;21.83;;;20.73;;
58982;SDS011;44771;49.982;8.560;2024-03-23T07:23:41;21.27;;;20.27;;
58982;SDS011;44771;49.982;8.560;2024-03-23T07:28:43;22.75;;;21.17;;
58982;SDS011;44771;49.982;8.560;2024-03-23T07:33:45;21.75;;;20.55;;
58982;SDS011;44771;49.982;8.560;2024-03-23T07:38:48;22.17;;;21.07;;
58982;SDS011;44771;49.982;8.560;2024-03-23T07:43:49;21.62;;;20.52;;
58982;SDS011;44771;49.982;8.560;2024-03-23T07:48:51;21.85;;;20.75;;
58982;SDS011;44771;49.982;8.560;2024-03-23T07:53:52;21.50;;;20.40;;
58982;SDS011;44771;49.982;8.560;2024-03-23T07:58:53;22.65;;;21.42;;
58982;SDS011;44771;49.982;8.560;2024-03-23T08:03:55;22.90;;;21.67;;
58982;SDS011;44771;49.982;8.560;2024-03-23T08:08:56;23.35;;;22.05;;
58982;SDS011;44771;49.982;8.560;2024-03-23T08:13:57;24.00;;;22.60;;
58982;SDS011;44771;49.982;8.560;2024-03-23T08:19:00;24.83;;;23.25;;
58982;SDS011;44771;49.982;8.560;2024-03-23T08:24:01;22.75;;;21.45;;
58982;SDS011;44771;49.982;8.560;2024-03-23T08:29:01;21.20;;;19.87;;
58982;SDS011;44771;49.982;8.560;2024-03-23T08:34:04;23.95;;;22.65;;
58982;SDS011;44771;49.982;8.560;2024-03-23T08:39:05;22.55;;;21.33;;
58982;SDS011;44771;49.982;8.560;2024-03-23T08:44:05;22.90;;;21.65;;
58982;SDS011;44771;49.982;8.560;2024-03-23T08:49:08;22.13;;;20.95;;
58982;SDS011;44771;49.982;8.560;2024-03-23T08:54:09;20.75;;;19.65;;
58982;SDS011;44771;49.982;8.560;2024-03-23T08:59:09;22.60;;;21.27;;
58982;SDS011;44771;49.982;8.560;2024-03-23T09:04:12;23.87;;;22.67;;
58982;SDS011;44771;49.982;8.560;2024-03-23T09:09:12;23.48;;;22.20;;
58982;SDS011;44771;49.982;8.560;2024-03-23T09:14:15;22.85;;;21.75;;
58982;SDS011;44771;49.982;8.560;2024-03-23T09:19:18;22.15;;;20.85;;
58982;SDS011;44771;49.982;8.560;2024-03-23T09:24:18;23.67;;;22.37;;
58982;SDS011;44771;49.982;8.560;2024-03-23T09:29:19;23.58;;;21.80;;
58982;SDS011;44771;49.982;8.560;2024-03-23T09:34:22;22.60;;;21.35;;
58982;SDS011;44771;49.982;8.560;2024-03-23T09:39:23;23.12;;;21.75;;
58982;SDS011;44771;49.982;8.560;2024-03-23T09:44:24;21.58;;;20.15;;
58982;SDS011;44771;49.982;8.560;2024-03-23T09:49:27;20.00;;;18.70;;
58982;SDS011;44771;49.982;8.560;2024-03-23T09:54:28;19.55;;;18.35;;
58982;SDS011;44771;49.982;8.560;2024-03-23T09:59:29;18.77;;;17.87;;
58982;SDS011;44771;49.982;8.560;2024-03-23T10:04:37;20.42;;;19.30;;
58982;SDS011;44771;49.982;8.560;2024-03-23T10:09:39;19.65;;;18.23;;
58982;SDS011;44771;49.982;8.560;2024-03-23T10:14:40;19.60;;;18.45;;
58982;SDS011;44771;49.982;8.560;2024-03-23T10:19:43;21.62;;;20.37;;
58982;SDS011;44771;49.982;8.560;2024-03-23T10:24:44;23.30;;;22.02;;
58982;SDS011;44771;49.982;8.560;2024-03-23T10:29:45;23.45;;;22.35;;
58982;SDS011;44771;49.982;8.560;2024-03-23T10:34:47;23.42;;;22.23;;
58982;SDS011;44771;49.982;8.560;2024-03-23T10:39:48;24.73;;;23.38;;
58982;SDS011;44771;49.982;8.560;2024-03-23T10:44:50;23.87;;;22.58;;
58982;SDS011;44771;49.982;8.560;2024-03-23T10:49:52;23.05;;;21.90;;
58982;SDS011;44771;49.982;8.560;2024-03-23T10:54:54;21.42;;;20.17;;
58982;SDS011;44771;49.982;8.560;2024-03-23T10:59:56;20.95;;;19.95;;
58982;SDS011;44771;49.982;8.560;2024-03-23T11:04:59;20.27;;;19.23;;
58982;SDS011;44771;49.982;8.560;2024-03-23T11:10:00;20.75;;;19.75;;
58982;SDS011;44771;49.982;8.560;2024-03-23T11:15:02;22.50;;;21.25;;
58982;SDS011;44771;49.982;8.560;2024-03-23T11:20:06;23.38;;;22.23;;
58982;SDS011;44771;49.982;8.560;2024-03-23T11:25:12;22.80;;;21.70;;
58982;SDS011;44771;49.982;8.560;2024-03-23T11:30:14;23.15;;;21.95;;
58982;SDS011;44771;49.982;8.560;2024-03-23T11:35:27;22.80;;;21.60;;
58982;SDS011;44771;49.982;8.560;2024-03-23T11:40:28;22.35;;;21.15;;
58982;SDS011;44771;49.982;8.560;2024-03-23T11:45:33;19.87;;;18.92;;
58982;SDS011;44771;49.982;8.560;2024-03-23T11:50:38;21.58;;;20.48;;
58982;SDS011;44771;49.982;8.560;2024-03-23T12:00:51;21.55;;;20.42;;
58982;SDS011;44771;49.982;8.560;2024-03-23T12:05:55;22.65;;;21.42;;
58982;SDS011;44771;49.982;8.560;2024-03-23T12:11:04;21.60;;;20.50;;
58982;SDS011;44771;49.982;8.560;2024-03-23T12:16:09;22.05;;;20.95;;
58982;SDS011;44771;49.982;8.560;2024-03-23T12:21:12;20.88;;;19.87;;
58982;SDS011;44771;49.982;8.560;2024-03-23T12:26:13;18.70;;;17.62;;
58982;SDS011;44771;49.982;8.560;2024-03-23T12:31:14;21.83;;;20.00;;
58982;SDS011;44771;49.982;8.560;2024-03-23T12:36:16;20.08;;;19.00;;
58982;SDS011;44771;49.982;8.560;2024-03-23T12:41:17;20.05;;;18.95;;
58982;SDS011;44771;49.982;8.560;2024-03-23T12:46:18;18.67;;;17.27;;
58982;SDS011;44771;49.982;8.560;2024-03-23T12:51:20;20.02;;;18.90;;
58982;SDS011;44771;49.982;8.560;2024-03-23T12:56:21;17.98;;;17.02;;
58982;SDS011;44771;49.982;8.560;2024-03-23T13:01:22;19.85;;;18.83;;
58982;SDS011;44771;49.982;8.560;2024-03-23T13:06:24;21.08;;;20.02;;
58982;SDS011;44771;49.982;8.560;2024-03-23T13:11:25;22.17;;;21.12;;
58982;SDS011;44771;49.982;8.560;2024-03-23T13:16:26;34.63;;;32.80;;
58982;SDS011;44771;49.982;8.560;2024-03-23T13:21:29;21.92;;;20.92;;
58982;SDS011;44771;49.982;8.560;2024-03-23T13:26:29;21.92;;;20.85;;
58982;SDS011;44771;49.982;8.560;2024-03-23T13:31:30;21.23;;;20.23;;
58982;SDS011;44771;49.982;8.560;2024-03-23T13:36:33;22.02;;;20.95;;
58982;SDS011;44771;49.982;8.560;2024-03-23T13:41:33;23.95;;;22.75;;
58982;SDS011;44771;49.982;8.560;2024-03-23T13:46:34;20.90;;;19.77;;
58982;SDS011;44771;49.982;8.560;2024-03-23T13:51:36;20.35;;;19.35;;
58982;SDS011;44771;49.982;8.560;2024-03-23T13:56:37;21.23;;;20.20;;
58982;SDS011;44771;49.982;8.560;2024-03-23T14:01:38;20.85;;;19.85;;
58982;SDS011;44771;49.982;8.560;2024-03-23T14:06:40;20.98;;;19.98;;
58982;SDS011;44771;49.982;8.560;2024-03-23T14:11:42;19.37;;;18.48;;
58982;SDS011;44771;49.982;8.560;2024-03-23T14:16:43;20.40;;;19.40;;
58982;SDS011;44771;49.982;8.560;2024-03-23T14:21:45;20.42;;;19.37;;
58982;SDS011;44771;49.982;8.560;2024-03-23T14:26:46;22.25;;;21.15;;
58982;SDS011;44771;49.982;8.560;2024-03-23T14:31:47;22.08;;;20.98;;
58982;SDS011;44771;49.982;8.560;2024-03-23T14:36:49;20.98;;;19.98;;
58982;SDS011;44771;49.982;8.560;2024-03-23T14:41:50;19.30;;;18.40;;
58982;SDS011;44771;49.982;8.560;2024-03-23T14:46:51;21.20;;;20.20;;
58982;SDS011;44771;49.982;8.560;2024-03-23T14:51:53;19.30;;;18.40;;
58982;SDS011;44771;49.982;8.560;2024-03-23T14:56:54;21.58;;;20.58;;
58982;SDS011;44771;49.982;8.560;2024-03-23T15:01:55;20.30;;;19.30;;
58982;SDS011;44771;49.982;8.560;2024-03-23T15:07:07;20.83;;;19.83;;
58982;SDS011;44771;49.982;8.560;2024-03-23T15:12:07;20.70;;;19.70;;
58982;SDS011;44771;49.982;8.560;2024-03-23T15:17:08;21.35;;;20.35;;
58982;SDS011;44771;49.982;8.560;2024-03-23T15:22:11;22.37;;;21.27;;
58982;SDS011;44771;49.982;8.560;2024-03-23T15:27:12;19.48;;;18.58;;
58982;SDS011;44771;49.982;8.560;2024-03-23T15:32:12;20.92;;;19.83;;
58982;SDS011;44771;49.982;8.560;2024-03-23T15:37:15;19.40;;;18.50;;
58982;SDS011;44771;49.982;8.560;2024-03-23T15:42:16;21.77;;;20.70;;
58982;SDS011;44771;49.982;8.560;2024-03-23T15:47:16;22.15;;;21.05;;
58982;SDS011;44771;49.982;8.560;2024-03-23T15:52:19;21.40;;;20.40;;
58982;SDS011;44771;49.982;8.560;2024-03-23T15:57:20;20.70;;;19.70;;
58982;SDS011;44771;49.982;8.560;2024-03-23T16:02:20;21.62;;;20.62;;
58982;SDS011;44771;49.982;8.560;2024-03-23T16:07:23;19.92;;;18.92;;
58982;SDS011;44771;49.982;8.560;2024-03-23T16:12:24;21.17;;;20.12;;
58982;SDS011;44771;49.982;8.560;2024-03-23T16:17:24;23.38;;;22.17;;
58982;SDS011;44771;49.982;8.560;2024-03-23T16:22:27;22.75;;;21.45;;
58982;SDS011;44771;49.982;8.560;2024-03-23T16:27:28;22.00;;;20.98;;
58982;SDS011;44771;49.982;8.560;2024-03-23T16:32:28;21.02;;;20.02;;
58982;SDS011;44771;49.982;8.560;2024-03-23T16:37:32;21.50;;;20.50;;
58982;SDS011;44771;49.982;8.560;2024-03-23T16:42:32;24.80;;;23.27;;
58982;SDS011;44771;49.982;8.560;2024-03-23T16:47:33;23.25;;;21.27;;
58982;SDS011;44771;49.982;8.560;2024-03-23T16:52:36;22.75;;;21.60;;
58982;SDS011;44771;49.982;8.560;2024-03-23T16:57:36;22.80;;;21.40;;
58982;SDS011;44771;49.982;8.560;2024-03-23T17:02:37;22.15;;;21.05;;
58982;SDS011;44771;49.982;8.560;2024-03-23T17:07:40;20.65;;;19.65;;
58982;SDS011;44771;49.982;8.560;2024-03-23T17:12:40;21.50;;;20.50;;
58982;SDS011;44771;49.982;8.560;2024-03-23T17:17:41;22.23;;;21.12;;
58982;SDS011;44771;49.982;8.560;2024-03-23T17:22:43;21.62;;;20.52;;
58982;SDS011;44771;49.982;8.560;2024-03-23T17:27:44;22.02;;;20.90;;
58982;SDS011;44771;49.982;8.560;2024-03-23T17:32:45;20.83;;;19.75;;
58982;SDS011;44771;49.982;8.560;2024-03-23T17:37:48;21.52;;;20.42;;
58982;SDS011;44771;49.982;8.560;2024-03-23T17:42:49;22.02;;;20.95;;
58982;SDS011;44771;49.982;8.560;2024-03-23T17:47:50;22.40;;;21.20;;
58982;SDS011;44771;49.982;8.560;2024-03-23T17:52:52;23.27;;;21.35;;
58982;SDS011;44771;49.982;8.560;2024-03-23T17:57:53;22.13;;;20.80;;
58982;SDS011;44771;49.982;8.560;2024-03-23T18:02:54;24.87;;;22.87;;
58982;SDS011;44771;49.982;8.560;2024-03-23T18:07:56;22.48;;;21.27;;
58982;SDS011;44771;49.982;8.560;2024-03-23T18:12:57;21.70;;;20.70;;
58982;SDS011;44771;49.982;8.560;2024-03-23T18:17:58;21.67;;;20.67;;
58982;SDS011;44771;49.982;8.560;2024-03-23T18:23:00;22.30;;;21.20;;
58982;SDS011;44771;49.982;8.560;2024-03-23T18:28:01;20.33;;;19.33;;
58982;SDS011;44771;49.982;8.560;2024-03-23T18:33:02;22.95;;;21.85;;
58982;SDS011;44771;49.982;8.560;2024-03-23T18:38:05;22.23;;;21.15;;
58982;SDS011;44771;49.982;8.560;2024-03-23T18:43:06;22.37;;;21.30;;
58982;SDS011;44771;49.982;8.560;2024-03-23T18:48:07;20.70;;;19.60;;
58982;SDS011;44771;49.982;8.560;2024-03-23T18:53:10;22.70;;;21.60;;
58982;SDS011;44771;49.982;8.560;2024-03-23T18:58:11;22.20;;;21.15;;
58982;SDS011;44771;49.982;8.560;2024-03-23T19:03:12;21.52;;;20.48;;
58982;SDS011;44771;49.982;8.560;2024-03-23T19:08:14;23.23;;;22.13;;
58982;SDS011;44771;49.982;8.560;2024-03-23T19:13:15;22.67;;;21.58;;
58982;SDS011;44771;49.982;8.560;2024-03-23T19:18:16;22.77;;;21.67;;
58982;SDS011;44771;49.982;8.560;2024-03-23T19:23:18;22.58;;;21.37;;
58982;SDS011;44771;49.982;8.560;2024-03-23T19:28:19;23.67;;;22.58;;
58982;SDS011;44771;49.982;8.560;2024-03-23T19:33:20;21.40;;;20.35;;
58982;SDS011;44771;49.982;8.560;2024-03-23T19:38:23;24.27;;;23.10;;
58982;SDS011;44771;49.982;8.560;2024-03-23T19:43:24;23.25;;;22.05;;
58982;SDS011;44771;49.982;8.560;2024-03-23T19:48:26;22.75;;;21.35;;
58982;SDS011;44771;49.982;8.560;2024-03-23T19:53:29;21.27;;;20.25;;
58982;SDS011;44771;49.982;8.560;2024-03-23T19:58:30;21.58;;;20.48;;
58982;SDS011;44771;49.982;8.560;2024-03-23T20:03:30;21.30;;;20.30;;
58982;SDS011;44771;49.982;8.560;2024-03-23T20:08:33;23.60;;;22.40;;
58982;SDS011;44771;49.982;8.560;2024-03-23T20:13:34;22.48;;;21.30;;
58982;SDS011;44771;49.982;8.560;2024-03-23T20:18:35;23.25;;;22.15;;
58982;SDS011;44771;49.982;8.560;2024-03-23T20:23:37;24.63;;;23.02;;
58982;SDS011;44771;49.982;8.560;2024-03-23T20:28:38;23.45;;;22.25;;
58982;SDS011;44771;49.982;8.560;2024-03-23T20:33:39;23.05;;;21.85;;
58982;SDS011;44771;49.982;8.560;2024-03-23T20:38:41;23.27;;;22.17;;
58982;SDS011;44771;49.982;8.560;2024-03-23T20:43:42;24.20;;;22.90;;
58982;SDS011;44771;49.982;8.560;2024-03-23T20:48:43;22.40;;;21.33;;
58982;SDS011;44771;49.982;8.560;2024-03-23T20:53:45;22.45;;;21.35;;
58982;SDS011;44771;49.982;8.560;2024-03-23T20:58:46;24.12;;;22.92;;
58982;SDS011;44771;49.982;8.560;2024-03-23T21:03:47;22.67;;;21.58;;
58982;SDS011;44771;49.982;8.560;2024-03-23T21:08:49;24.33;;;22.92;;
58982;SDS011;44771;49.982;8.560;2024-03-23T21:13:50;21.98;;;20.88;;
58982;SDS011;44771;49.982;8.560;2024-03-23T21:18:51;22.52;;;21.42;;
58982;SDS011;44771;49.982;8.560;2024-03-23T21:23:53;23.87;;;22.67;;
58982;SDS011;44771;49.982;8.560;2024-03-23T21:28:54;22.45;;;21.35;;
58982;SDS011;44771;49.982;8.560;2024-03-23T21:33:55;21.50;;;20.50;;
58982;SDS011;44771;49.982;8.560;2024-03-23T21:38:57;24.25;;;22.87;;
58982;SDS011;44771;49.982;8.560;2024-03-23T21:43:58;23.50;;;22.30;;
58982;SDS011;44771;49.982;8.560;2024-03-23T21:48:58;25.55;;;24.12;;
58982;SDS011;44771;49.982;8.560;2024-03-23T21:54:01;25.27;;;22.98;;
58982;SDS011;44771;49.982;8.560;2024-03-23T21:59:02;21.67;;;20.65;;
58982;SDS011;44771;49.982;8.560;2024-03-23T22:04:03;24.15;;;22.60;;
58982;SDS011;44771;49.982;8.560;2024-03-23T22:09:05;24.37;;;23.08;;
58982;SDS011;44771;49.982;8.560;2024-03-23T22:14:06;24.35;;;22.30;;
58982;SDS011;44771;49.982;8.560;2024-03-23T22:19:07;25.40;;;23.90;;
58982;SDS011;44771;49.982;8.560;2024-03-23T22:24:09;23.67;;;22.40;;
58982;SDS011;44771;49.982;8.560;2024-03-23T22:29:10;24.48;;;22.98;;
58982;SDS011;44771;49.982;8.560;2024-03-23T22:34:10;24.50;;;22.48;;
58982;SDS011;44771;49.982;8.560;2024-03-23T22:39:13;24.37;;;22.98;;
58982;SDS011;44771;49.982;8.560;2024-03-23T22:44:14;23.58;;;22.15;;
58982;SDS011;44771;49.982;8.560;2024-03-23T22:49:14;22.87;;;21.58;;
58982;SDS011;44771;49.982;8.560;2024-03-23T22:54:17;23.40;;;22.20;;
58982;SDS011;44771;49.982;8.560;2024-03-23T22:59:18;23.33;;;22.02;;
58982;SDS011;44771;49.982;8.560;2024-03-23T23:04:19;21.77;;;20.58;;
58982;SDS011;44771;49.982;8.560;2024-03-23T23:09:21;23.40;;;22.17;;
58982;SDS011;44771;49.982;8.560;2024-03-23T23:14:22;25.17;;;23.77;;
58982;SDS011;44771;49.982;8.560;2024-03-23T23:19:23;24.35;;;22.87;;
58982;SDS011;44771;49.982;8.560;2024-03-23T23:24:25;22.73;;;21.62;;
58982;SDS011;44771;49.982;8.560;2024-03-23T23:29:26;22.55;;;21.45;;
58982;SDS011;44771;49.982;8.560;2024-03-23T23:34:26;24.15;;;22.85;;
58982;SDS011;44771;49.982;8.560;2024-03-23T23:39:29;23.58;;;21.95;;
58982;SDS011;44771;49.982;8.560;2024-03-23T23:44:29;23.85;;;22.60;;
58982;SDS011;44771;49.982;8.560;2024-03-23T23:49:30;23.15;;;22.05;;
58982;SDS011;44771;49.982;8.560;2024-03-23T23:54:33;24.83;;;23.62;;
58982;SDS011;44771;49.982;8.560;2024-03-23T23:59:34;24.10;;;22.90;;
